createdAt,value
2018-07-02T00:00:35.240Z,1010.81
2018-07-02T00:01:35.205Z,1010.79
2018-07-02T00:02:35.189Z,1010.80
2018-07-02T00:03:35.160Z,1010.83
2018-07-02T00:04:35.142Z,1010.80
2018-07-02T00:05:35.118Z,1010.78
2018-07-02T00:06:35.102Z,1010.75
2018-07-02T00:07:35.068Z,1010.76
2018-07-02T00:08:35.076Z,1010.74
2018-07-02T00:09:35.021Z,1010.70
2018-07-02T00:10:35.096Z,1010.68
2018-07-02T00:11:34.980Z,1010.71
2018-07-02T00:12:35.004Z,1010.73
2018-07-02T00:13:34.925Z,1010.68
2018-07-02T00:14:34.914Z,1010.65
2018-07-02T00:15:34.880Z,1010.66
2018-07-02T00:16:34.929Z,1010.69
2018-07-02T00:17:34.832Z,1010.68
2018-07-02T00:18:34.848Z,1010.65
2018-07-02T00:19:34.788Z,1010.66
2018-07-02T00:20:34.865Z,1010.66
2018-07-02T00:21:34.747Z,1010.66
2018-07-02T00:22:34.785Z,1010.65
2018-07-02T00:23:34.712Z,1010.61
2018-07-02T00:24:34.777Z,1010.62
2018-07-02T00:25:34.653Z,1010.59
2018-07-02T00:26:34.687Z,1010.59
2018-07-02T00:27:34.615Z,1010.57
2018-07-02T00:28:34.613Z,1010.60
2018-07-02T00:29:34.564Z,1010.60
2018-07-02T00:30:34.542Z,1010.64
2018-07-02T00:31:34.516Z,1010.60
2018-07-02T00:32:34.498Z,1010.59
2018-07-02T00:33:34.471Z,1010.56
2018-07-02T00:34:34.600Z,1010.65
2018-07-02T00:35:34.428Z,1010.63
2018-07-02T00:36:34.448Z,1010.58
2018-07-02T00:37:34.383Z,1010.54
2018-07-02T00:38:34.456Z,1010.53
2018-07-02T00:39:34.362Z,1010.54
2018-07-02T00:40:34.367Z,1010.55
2018-07-02T00:41:34.311Z,1010.50
2018-07-02T00:42:34.342Z,1010.50
2018-07-02T00:43:34.250Z,1010.49
2018-07-02T00:44:34.293Z,1010.50
2018-07-02T00:45:34.209Z,1010.48
2018-07-02T00:46:34.206Z,1010.47
2018-07-02T00:47:34.159Z,1010.47
2018-07-02T00:48:34.214Z,1010.44
2018-07-02T00:49:34.112Z,1010.43
2018-07-02T00:50:34.165Z,1010.44
2018-07-02T00:51:34.058Z,1010.41
2018-07-02T00:52:34.045Z,1010.36
2018-07-02T00:53:34.019Z,1010.38
2018-07-02T00:54:34.045Z,1010.35
2018-07-02T00:55:33.979Z,1010.35
2018-07-02T00:56:34.058Z,1010.29
2018-07-02T00:57:33.934Z,1010.32
2018-07-02T00:58:33.985Z,1010.29
2018-07-02T00:59:33.883Z,1010.33
2018-07-02T01:00:33.883Z,1010.34
2018-07-02T01:01:33.840Z,1010.29
2018-07-02T01:02:33.895Z,1010.30
2018-07-02T01:03:33.794Z,1010.28
2018-07-02T01:04:33.829Z,1010.34
2018-07-02T01:05:33.743Z,1010.34
2018-07-02T01:06:33.813Z,1010.35
2018-07-02T01:07:33.708Z,1010.35
2018-07-02T01:08:33.748Z,1010.35
2018-07-02T01:09:33.718Z,1010.35
2018-07-02T01:10:33.750Z,1010.34
2018-07-02T01:11:33.603Z,1010.33
2018-07-02T01:12:33.596Z,1010.31
2018-07-02T01:13:33.563Z,1010.33
2018-07-02T01:14:33.589Z,1010.28
2018-07-02T01:15:33.528Z,1010.28
2018-07-02T01:16:34.505Z,1010.30
2018-07-02T01:17:33.479Z,1010.24
2018-07-02T01:18:33.452Z,1010.26
2018-07-02T01:19:33.443Z,1010.29
2018-07-02T01:20:33.421Z,1010.29
2018-07-02T01:21:33.398Z,1010.30
2018-07-02T01:22:33.368Z,1010.31
2018-07-02T01:23:33.345Z,1010.31
2018-07-02T01:24:33.349Z,1010.34
2018-07-02T01:25:33.285Z,1010.32
2018-07-02T01:26:33.282Z,1010.34
2018-07-02T01:27:33.242Z,1010.32
2018-07-02T01:28:33.255Z,1010.36
2018-07-02T01:29:33.207Z,1010.32
2018-07-02T01:30:33.256Z,1010.31
2018-07-02T01:31:33.159Z,1010.28
2018-07-02T01:32:33.192Z,1010.30
2018-07-02T01:33:33.110Z,1010.28
2018-07-02T01:34:33.179Z,1010.27
2018-07-02T01:35:33.057Z,1010.25
2018-07-02T01:36:33.091Z,1010.24
2018-07-02T01:37:33.021Z,1010.22
2018-07-02T01:38:33.005Z,1010.29
2018-07-02T01:39:32.981Z,1010.28
2018-07-02T01:40:33.019Z,1010.27
2018-07-02T01:41:32.928Z,1010.28
2018-07-02T01:42:32.934Z,1010.30
2018-07-02T01:43:32.890Z,1010.31
2018-07-02T01:44:32.947Z,1010.37
2018-07-02T01:45:32.831Z,1010.36
2018-07-02T01:46:32.865Z,1010.34
2018-07-02T01:47:32.792Z,1010.38
2018-07-02T01:48:32.773Z,1010.37
2018-07-02T01:49:32.734Z,1010.39
2018-07-02T01:50:32.732Z,1010.40
2018-07-02T01:51:32.689Z,1010.42
2018-07-02T01:52:32.695Z,1010.46
2018-07-02T01:53:32.640Z,1010.43
2018-07-02T01:54:32.624Z,1010.42
2018-07-02T01:55:32.599Z,1010.44
2018-07-02T01:56:32.578Z,1010.48
2018-07-02T01:57:32.568Z,1010.48
2018-07-02T01:58:32.541Z,1010.44
2018-07-02T01:59:32.526Z,1010.44
2018-07-02T02:00:32.481Z,1010.45
2018-07-02T02:01:32.462Z,1010.40
2018-07-02T02:02:32.450Z,1010.43
2018-07-02T02:03:32.426Z,1010.42
2018-07-02T02:04:32.413Z,1010.47
2018-07-02T02:05:32.363Z,1010.44
2018-07-02T02:06:32.356Z,1010.43
2018-07-02T02:07:32.332Z,1010.41
2018-07-02T02:08:32.318Z,1010.40
2018-07-02T02:09:32.267Z,1010.39
2018-07-02T02:10:32.268Z,1010.38
2018-07-02T02:11:32.228Z,1010.43
2018-07-02T02:12:32.226Z,1010.41
2018-07-02T02:13:32.285Z,1010.43
2018-07-02T02:14:32.206Z,1010.47
2018-07-02T02:15:32.174Z,1010.45
2018-07-02T02:16:32.126Z,1010.47
2018-07-02T02:17:32.087Z,1010.41
2018-07-02T02:18:32.072Z,1010.44
2018-07-02T02:19:32.039Z,1010.43
2018-07-02T02:20:32.025Z,1010.47
2018-07-02T02:21:31.992Z,1010.47
2018-07-02T02:22:32.067Z,1010.42
2018-07-02T02:23:31.951Z,1010.45
2018-07-02T02:24:31.970Z,1010.45
2018-07-02T02:25:32.006Z,1010.39
2018-07-02T02:26:32.907Z,1010.45
2018-07-02T02:27:31.854Z,1010.47
2018-07-02T02:28:31.907Z,1010.48
2018-07-02T02:29:31.812Z,1010.43
2018-07-02T02:30:31.805Z,1010.48
2018-07-02T02:31:31.812Z,1010.52
2018-07-02T02:32:32.872Z,1010.53
2018-07-02T02:33:31.730Z,1010.56
2018-07-02T02:34:31.725Z,1010.58
2018-07-02T02:35:31.666Z,1010.63
2018-07-02T02:36:31.739Z,1010.64
2018-07-02T02:37:31.626Z,1010.63
2018-07-02T02:38:33.706Z,1010.66
2018-07-02T02:39:31.577Z,1010.67
2018-07-02T02:40:31.562Z,1010.66
2018-07-02T02:41:31.522Z,1010.66
2018-07-02T02:42:31.584Z,1010.65
2018-07-02T02:43:31.477Z,1010.67
2018-07-02T02:44:31.491Z,1010.67
2018-07-02T02:45:31.431Z,1010.69
2018-07-02T02:46:31.412Z,1010.70
2018-07-02T02:47:31.386Z,1010.70
2018-07-02T02:48:31.365Z,1010.71
2018-07-02T02:49:31.346Z,1010.75
2018-07-02T02:50:31.318Z,1010.69
2018-07-02T02:51:31.290Z,1010.71
2018-07-02T02:52:31.274Z,1010.70
2018-07-02T02:53:31.249Z,1010.70
2018-07-02T02:54:31.226Z,1010.67
2018-07-02T02:55:31.199Z,1010.65
2018-07-02T02:56:31.181Z,1010.62
2018-07-02T02:57:31.152Z,1010.60
2018-07-02T02:58:31.130Z,1010.63
2018-07-02T02:59:31.094Z,1010.57
2018-07-02T03:00:31.081Z,1010.59
2018-07-02T03:01:31.052Z,1010.60
2018-07-02T03:02:31.045Z,1010.59
2018-07-02T03:03:31.017Z,1010.63
2018-07-02T03:04:30.997Z,1010.59
2018-07-02T03:05:30.963Z,1010.66
2018-07-02T03:06:30.946Z,1010.62
2018-07-02T03:07:30.921Z,1010.67
2018-07-02T03:08:30.932Z,1010.68
2018-07-02T03:09:30.871Z,1010.69
2018-07-02T03:10:30.940Z,1010.70
2018-07-02T03:11:30.819Z,1010.69
2018-07-02T03:12:31.874Z,1010.67
2018-07-02T03:13:30.779Z,1010.64
2018-07-02T03:14:30.865Z,1010.62
2018-07-02T03:15:30.732Z,1010.62
2018-07-02T03:16:30.807Z,1010.60
2018-07-02T03:17:30.682Z,1010.60
2018-07-02T03:18:30.688Z,1010.58
2018-07-02T03:19:30.667Z,1010.57
2018-07-02T03:20:30.782Z,1010.56
2018-07-02T03:21:30.593Z,1010.62
2018-07-02T03:22:30.612Z,1010.62
2018-07-02T03:23:30.550Z,1010.61
2018-07-02T03:24:30.620Z,1010.62
2018-07-02T03:25:30.494Z,1010.60
2018-07-02T03:26:30.559Z,1010.54
2018-07-02T03:27:30.498Z,1010.60
2018-07-02T03:28:30.463Z,1010.60
2018-07-02T03:29:30.504Z,1010.58
2018-07-02T03:30:30.404Z,1010.62
2018-07-02T03:31:30.361Z,1010.62
2018-07-02T03:32:31.359Z,1010.62
2018-07-02T03:33:30.310Z,1010.61
2018-07-02T03:34:31.306Z,1010.60
2018-07-02T03:35:30.266Z,1010.62
2018-07-02T03:36:30.239Z,1010.65
2018-07-02T03:37:30.216Z,1010.62
2018-07-02T03:38:30.196Z,1010.66
2018-07-02T03:39:30.187Z,1010.64
2018-07-02T03:40:31.151Z,1010.66
2018-07-02T03:41:30.119Z,1010.68
2018-07-02T03:42:31.110Z,1010.73
2018-07-02T03:43:30.073Z,1010.73
2018-07-02T03:44:30.070Z,1010.75
2018-07-02T03:45:30.030Z,1010.69
2018-07-02T03:46:30.009Z,1010.72
2018-07-02T03:47:29.975Z,1010.70
2018-07-02T03:48:30.956Z,1010.63
2018-07-02T03:49:29.947Z,1010.68
2018-07-02T03:50:29.946Z,1010.69
2018-07-02T03:51:29.888Z,1010.65
2018-07-02T03:52:30.879Z,1010.69
2018-07-02T03:53:29.833Z,1010.69
2018-07-02T03:54:30.823Z,1010.69
2018-07-02T03:55:29.824Z,1010.68
2018-07-02T03:56:29.769Z,1010.67
2018-07-02T03:57:29.740Z,1010.66
2018-07-02T03:58:29.824Z,1010.71
2018-07-02T03:59:29.805Z,1010.66
2018-07-02T04:00:29.774Z,1010.74
2018-07-02T04:01:29.664Z,1010.71
2018-07-02T04:02:29.671Z,1010.70
2018-07-02T04:03:29.618Z,1010.69
2018-07-02T04:04:29.666Z,1010.67
2018-07-02T04:05:29.553Z,1010.64
2018-07-02T04:06:29.574Z,1010.63
2018-07-02T04:07:29.508Z,1010.61
2018-07-02T04:08:29.587Z,1010.58
2018-07-02T04:09:29.461Z,1010.59
2018-07-02T04:10:29.509Z,1010.60
2018-07-02T04:12:15.255Z,1010.62
2018-07-02T04:13:15.191Z,1010.66
2018-07-02T04:14:15.161Z,1010.67
2018-07-02T04:15:15.142Z,1010.66
2018-07-02T04:16:15.132Z,1010.64
2018-07-02T04:17:15.140Z,1010.69
2018-07-02T04:18:15.066Z,1010.72
2018-07-02T04:19:15.048Z,1010.76
2018-07-02T04:20:15.022Z,1010.76
2018-07-02T04:21:15.004Z,1010.81
2018-07-02T04:22:14.987Z,1010.85
2018-07-02T04:23:14.958Z,1010.83
2018-07-02T04:24:14.924Z,1010.82
2018-07-02T04:25:16.981Z,1010.84
2018-07-02T04:26:14.877Z,1010.88
2018-07-02T04:27:14.946Z,1010.86
2018-07-02T04:28:14.838Z,1010.90
2018-07-02T04:29:14.868Z,1010.88
2018-07-02T04:30:14.787Z,1010.93
2018-07-02T04:31:14.875Z,1010.96
2018-07-02T04:32:14.749Z,1010.95
2018-07-02T04:33:15.816Z,1010.96
2018-07-02T04:34:14.715Z,1010.98
2018-07-02T04:35:14.696Z,1010.96
2018-07-02T04:36:14.637Z,1010.96
2018-07-02T04:37:14.717Z,1010.93
2018-07-02T04:38:14.600Z,1010.90
2018-07-02T04:39:14.616Z,1010.92
2018-07-02T04:40:14.571Z,1010.89
2018-07-02T04:41:14.646Z,1010.88
2018-07-02T04:42:14.498Z,1010.95
2018-07-02T04:43:14.546Z,1010.91
2018-07-02T04:44:14.491Z,1010.94
2018-07-02T04:45:14.524Z,1010.92
2018-07-02T04:46:14.412Z,1010.93
2018-07-02T04:47:14.459Z,1010.98
2018-07-02T04:48:14.360Z,1010.94
2018-07-02T04:49:14.378Z,1010.95
2018-07-02T04:50:14.322Z,1010.99
2018-07-02T04:51:15.328Z,1011.00
2018-07-02T04:52:14.290Z,1010.99
2018-07-02T04:53:14.321Z,1010.99
2018-07-02T04:54:14.213Z,1011.03
2018-07-02T04:55:14.213Z,1011.02
2018-07-02T04:56:14.171Z,1011.04
2018-07-02T04:57:14.170Z,1011.06
2018-07-02T04:58:14.124Z,1011.04
2018-07-02T04:59:14.107Z,1011.02
2018-07-02T05:00:14.108Z,1011.04
2018-07-02T05:01:15.051Z,1011.02
2018-07-02T05:02:14.028Z,1010.99
2018-07-02T05:03:14.071Z,1011.04
2018-07-02T05:04:13.975Z,1011.00
2018-07-02T05:05:13.967Z,1011.01
2018-07-02T05:06:13.941Z,1011.04
2018-07-02T05:07:13.978Z,1011.02
2018-07-02T05:08:13.873Z,1011.05
2018-07-02T05:09:13.894Z,1011.01
2018-07-02T05:10:13.840Z,1011.04
2018-07-02T05:11:13.914Z,1010.99
2018-07-02T05:12:13.787Z,1011.06
2018-07-02T05:13:13.809Z,1011.06
2018-07-02T05:14:13.733Z,1011.12
2018-07-02T05:15:13.721Z,1011.10
2018-07-02T05:16:13.683Z,1011.09
2018-07-02T05:17:13.737Z,1011.07
2018-07-02T05:18:13.632Z,1011.07
2018-07-02T05:19:13.649Z,1011.08
2018-07-02T05:20:13.594Z,1011.09
2018-07-02T05:21:13.668Z,1011.06
2018-07-02T05:22:13.542Z,1011.08
2018-07-02T05:23:15.523Z,1011.10
2018-07-02T05:24:13.529Z,1011.12
2018-07-02T05:25:14.546Z,1011.09
2018-07-02T05:26:13.435Z,1011.07
2018-07-02T05:27:13.427Z,1011.09
2018-07-02T05:28:13.400Z,1011.06
2018-07-02T05:29:13.373Z,1011.04
2018-07-02T05:30:13.375Z,1011.06
2018-07-02T05:31:13.332Z,1011.06
2018-07-02T05:33:01.887Z,1011.06
2018-07-02T05:34:01.619Z,1011.09
2018-07-02T05:35:01.637Z,1011.09
2018-07-02T05:36:01.575Z,1011.05
2018-07-02T05:37:01.524Z,1011.05
2018-07-02T05:38:01.689Z,1011.02
2018-07-02T05:39:01.482Z,1011.04
2018-07-02T05:40:01.596Z,1011.02
2018-07-02T05:41:01.447Z,1011.08
2018-07-02T05:42:01.650Z,1011.04
2018-07-02T05:43:01.383Z,1011.04
2018-07-02T05:44:01.557Z,1011.05
2018-07-02T05:45:01.338Z,1011.04
2018-07-02T05:46:01.443Z,1011.03
2018-07-02T05:47:01.320Z,1011.05
2018-07-02T05:48:01.476Z,1010.98
2018-07-02T05:49:01.255Z,1010.98
2018-07-02T05:50:01.376Z,1010.96
2018-07-02T05:51:01.205Z,1010.99
2018-07-02T05:52:01.182Z,1010.99
2018-07-02T05:53:01.139Z,1010.92
2018-07-02T05:54:01.358Z,1010.94
2018-07-02T05:55:01.100Z,1010.93
2018-07-02T05:56:01.277Z,1010.91
2018-07-02T05:57:01.052Z,1010.93
2018-07-02T05:58:01.122Z,1010.89
2018-07-02T05:59:01.009Z,1010.93
2018-07-02T06:00:00.982Z,1010.89
2018-07-02T06:01:01.148Z,1010.91
2018-07-02T06:02:00.923Z,1010.86
2018-07-02T06:03:00.956Z,1010.87
2018-07-02T06:04:00.951Z,1010.86
2018-07-02T06:05:01.973Z,1010.89
2018-07-02T06:06:00.854Z,1010.86
2018-07-02T06:07:00.866Z,1010.84
2018-07-02T06:08:00.858Z,1010.84
2018-07-02T06:09:00.879Z,1010.81
2018-07-02T06:10:00.734Z,1010.88
2018-07-02T06:11:00.814Z,1010.84
2018-07-02T06:12:00.682Z,1010.88
2018-07-02T06:13:00.720Z,1010.93
2018-07-02T06:14:00.650Z,1010.91
2018-07-02T06:15:00.848Z,1010.88
2018-07-02T06:16:00.594Z,1010.89
2018-07-02T06:17:00.627Z,1010.88
2018-07-02T06:18:00.563Z,1010.86
2018-07-02T06:19:01.581Z,1010.89
2018-07-02T06:20:00.497Z,1010.87
2018-07-02T06:21:00.576Z,1010.88
2018-07-02T06:22:00.441Z,1010.91
2018-07-02T06:23:00.468Z,1010.90
2018-07-02T06:24:00.412Z,1010.94
2018-07-02T06:25:00.476Z,1010.93
2018-07-02T06:26:00.357Z,1010.93
2018-07-02T06:27:00.494Z,1010.88
2018-07-02T06:28:00.304Z,1010.96
2018-07-02T06:29:00.398Z,1010.98
2018-07-02T06:30:00.268Z,1010.99
2018-07-02T06:31:53.141Z,1010.96
2018-07-02T06:32:53.183Z,1010.98
2018-07-02T06:33:53.082Z,1010.95
2018-07-02T06:34:53.180Z,1010.93
2018-07-02T06:35:53.024Z,1010.96
2018-07-02T06:36:54.116Z,1010.91
2018-07-02T06:37:52.958Z,1010.92
2018-07-02T06:38:53.115Z,1010.86
2018-07-02T06:39:52.909Z,1010.96
2018-07-02T06:40:53.025Z,1010.92
2018-07-02T06:41:52.863Z,1010.92
2018-07-02T06:42:52.909Z,1010.93
2018-07-02T06:43:52.832Z,1010.91
2018-07-02T06:44:52.922Z,1010.90
2018-07-02T06:45:52.776Z,1010.93
2018-07-02T06:46:52.835Z,1010.91
2018-07-02T06:47:52.739Z,1010.86
2018-07-02T06:48:52.863Z,1010.91
2018-07-02T06:49:52.691Z,1010.86
2018-07-02T06:50:52.762Z,1010.87
2018-07-02T06:51:52.642Z,1010.90
2018-07-02T06:52:53.692Z,1010.88
2018-07-02T06:53:52.615Z,1010.86
2018-07-02T06:54:52.731Z,1010.87
2018-07-02T06:55:52.533Z,1010.88
2018-07-02T06:56:52.694Z,1010.90
2018-07-02T06:57:52.502Z,1010.93
2018-07-02T06:58:52.517Z,1010.94
2018-07-02T06:59:52.458Z,1010.95
2018-07-02T07:00:52.529Z,1010.92
2018-07-02T07:01:52.399Z,1010.97
2018-07-02T07:02:38.365Z,1010.93
2018-07-02T07:03:38.260Z,1011.00
2018-07-02T07:04:38.333Z,1010.97
2018-07-02T07:05:38.200Z,1010.98
2018-07-02T07:06:38.243Z,1010.99
2018-07-02T07:07:38.159Z,1011.02
2018-07-02T07:08:38.348Z,1011.02
2018-07-02T07:09:38.085Z,1011.01
2018-07-02T07:10:38.201Z,1010.99
2018-07-02T07:11:38.038Z,1011.03
2018-07-02T07:12:38.170Z,1010.93
2018-07-02T07:13:37.994Z,1011.03
2018-07-02T07:14:39.107Z,1010.99
2018-07-02T07:15:37.993Z,1010.99
2018-07-02T07:17:23.855Z,1011.02
2018-07-02T07:18:23.837Z,1011.03
2018-07-02T07:19:23.760Z,1011.02
2018-07-02T07:20:23.759Z,1011.04
2018-07-02T07:21:23.710Z,1011.07
2018-07-02T07:22:23.759Z,1011.07
2018-07-02T07:23:23.666Z,1011.00
2018-07-02T07:24:23.666Z,1011.04
2018-07-02T07:25:23.612Z,1011.03
2018-07-02T07:26:23.683Z,1011.02
2018-07-02T07:27:23.581Z,1011.00
2018-07-02T07:28:24.622Z,1011.01
2018-07-02T07:29:23.515Z,1011.00
2018-07-02T07:30:23.509Z,1010.99
2018-07-02T07:31:23.504Z,1011.02
2018-07-02T07:32:23.453Z,1010.99
2018-07-02T07:33:23.421Z,1011.02
2018-07-02T07:34:23.441Z,1011.02
2018-07-02T07:35:23.371Z,1010.99
2018-07-02T07:36:23.441Z,1011.02
2018-07-02T07:37:23.348Z,1010.96
2018-07-02T07:38:23.353Z,1010.94
2018-07-02T07:39:23.303Z,1010.97
2018-07-02T07:40:23.260Z,1010.95
2018-07-02T07:41:23.228Z,1011.01
2018-07-02T07:42:23.195Z,1010.94
2018-07-02T07:43:23.165Z,1011.01
2018-07-02T07:44:23.144Z,1010.96
2018-07-02T07:45:23.122Z,1010.94
2018-07-02T07:46:23.096Z,1011.01
2018-07-02T07:47:23.070Z,1011.00
2018-07-02T07:48:23.053Z,1011.03
2018-07-02T07:49:23.027Z,1011.03
2018-07-02T07:50:23.015Z,1011.02
2018-07-02T07:51:22.993Z,1011.02
2018-07-02T07:52:22.957Z,1010.99
2018-07-02T07:53:22.962Z,1011.00
2018-07-02T07:54:22.897Z,1010.96
2018-07-02T07:55:22.877Z,1010.99
2018-07-02T07:56:22.853Z,1010.98
2018-07-02T07:57:22.831Z,1010.99
2018-07-02T07:58:22.810Z,1011.01
2018-07-02T07:59:22.795Z,1010.97
2018-07-02T08:00:22.761Z,1011.02
2018-07-02T08:01:22.745Z,1010.98
2018-07-02T08:02:22.730Z,1011.02
2018-07-02T08:03:22.683Z,1010.98
2018-07-02T08:04:22.662Z,1011.01
2018-07-02T08:05:22.633Z,1011.00
2018-07-02T08:06:22.616Z,1011.02
2018-07-02T08:07:22.599Z,1010.99
2018-07-02T08:08:22.618Z,1011.02
2018-07-02T08:09:22.562Z,1011.05
2018-07-02T08:10:22.576Z,1011.06
2018-07-02T08:11:22.597Z,1011.04
2018-07-02T08:12:22.470Z,1011.04
2018-07-02T08:13:22.450Z,1011.06
2018-07-02T08:14:22.415Z,1011.11
2018-07-02T08:15:22.391Z,1011.06
2018-07-02T08:16:22.368Z,1011.10
2018-07-02T08:17:22.370Z,1011.08
2018-07-02T08:18:22.320Z,1011.03
2018-07-02T08:19:22.455Z,1011.03
2018-07-02T08:20:22.277Z,1011.04
2018-07-02T08:21:22.283Z,1011.07
2018-07-02T08:22:22.229Z,1011.04
2018-07-02T08:23:22.370Z,1011.08
2018-07-02T08:24:22.171Z,1011.00
2018-07-02T08:25:22.165Z,1011.06
2018-07-02T08:26:22.125Z,1011.08
2018-07-02T08:27:22.169Z,1011.14
2018-07-02T08:28:22.075Z,1011.12
2018-07-02T08:29:22.083Z,1011.11
2018-07-02T08:30:22.334Z,1011.08
2018-07-02T08:31:22.021Z,1011.09
2018-07-02T08:32:21.989Z,1011.10
2018-07-02T08:33:21.983Z,1011.14
2018-07-02T08:34:21.942Z,1011.12
2018-07-02T08:35:21.916Z,1011.21
2018-07-02T08:36:21.956Z,1011.13
2018-07-02T08:37:21.900Z,1011.15
2018-07-02T08:38:21.873Z,1011.13
2018-07-02T08:39:21.822Z,1011.13
2018-07-02T08:40:21.826Z,1011.19
2018-07-02T08:41:21.818Z,1011.14
2018-07-02T08:42:21.761Z,1011.15
2018-07-02T08:43:21.736Z,1011.14
2018-07-02T08:44:21.706Z,1011.15
2018-07-02T08:45:21.676Z,1011.15
2018-07-02T08:46:21.677Z,1011.15
2018-07-02T08:47:21.657Z,1011.14
2018-07-02T08:48:21.610Z,1011.07
2018-07-02T08:49:21.610Z,1011.06
2018-07-02T08:50:21.566Z,1011.05
2018-07-02T08:51:21.590Z,1011.01
2018-07-02T08:52:21.615Z,1010.99
2018-07-02T08:53:21.495Z,1010.98
2018-07-02T08:54:21.467Z,1011.00
2018-07-02T08:55:21.459Z,1011.01
2018-07-02T08:56:21.438Z,1011.04
2018-07-02T08:57:21.483Z,1011.01
2018-07-02T08:58:21.446Z,1010.99
2018-07-02T08:59:21.347Z,1011.03
2018-07-02T09:00:21.318Z,1011.03
2018-07-02T09:01:21.303Z,1011.07
2018-07-02T09:02:21.285Z,1011.07
2018-07-02T09:03:21.256Z,1011.03
2018-07-02T09:04:21.233Z,1011.05
2018-07-02T09:05:21.207Z,1011.09
2018-07-02T09:06:21.193Z,1011.02
2018-07-02T09:07:21.164Z,1010.99
2018-07-02T09:08:21.134Z,1010.96
2018-07-02T09:09:21.121Z,1010.91
2018-07-02T09:10:21.100Z,1010.87
2018-07-02T09:11:21.093Z,1010.93
2018-07-02T09:12:21.058Z,1010.96
2018-07-02T09:13:21.020Z,1010.94
2018-07-02T09:14:20.993Z,1010.88
2018-07-02T09:15:20.990Z,1010.84
2018-07-02T09:16:20.961Z,1010.83
2018-07-02T09:17:20.933Z,1010.88
2018-07-02T09:18:20.903Z,1010.85
2018-07-02T09:19:20.898Z,1010.83
2018-07-02T09:20:20.984Z,1010.83
2018-07-02T09:21:20.855Z,1010.85
2018-07-02T09:22:20.810Z,1010.83
2018-07-02T09:23:20.791Z,1010.89
2018-07-02T09:24:20.904Z,1010.82
2018-07-02T09:25:20.737Z,1010.84
2018-07-02T09:26:20.829Z,1010.82
2018-07-02T09:27:21.075Z,1010.78
2018-07-02T09:28:20.680Z,1010.81
2018-07-02T09:29:20.657Z,1010.84
2018-07-02T09:30:20.633Z,1010.87
2018-07-02T09:31:20.602Z,1010.85
2018-07-02T09:32:20.712Z,1010.84
2018-07-02T09:33:20.560Z,1010.82
2018-07-02T09:34:20.535Z,1010.79
2018-07-02T09:35:20.522Z,1010.84
2018-07-02T09:36:20.487Z,1010.79
2018-07-02T09:37:20.657Z,1010.82
2018-07-02T09:38:20.479Z,1010.85
2018-07-02T09:39:20.639Z,1010.78
2018-07-02T09:40:20.415Z,1010.85
2018-07-02T09:41:20.380Z,1010.82
2018-07-02T09:42:20.382Z,1010.87
2018-07-02T09:43:20.379Z,1010.77
2018-07-02T09:44:20.334Z,1010.80
2018-07-02T09:45:20.382Z,1010.77
2018-07-02T09:46:20.271Z,1010.73
2018-07-02T09:47:20.296Z,1010.78
2018-07-02T09:48:20.246Z,1010.78
2018-07-02T09:49:20.305Z,1010.75
2018-07-02T09:50:20.184Z,1010.75
2018-07-02T09:51:20.217Z,1010.82
2018-07-02T09:52:20.151Z,1010.81
2018-07-02T09:53:20.498Z,1010.76
2018-07-02T09:54:20.103Z,1010.70
2018-07-02T09:55:20.062Z,1010.72
2018-07-02T09:56:20.050Z,1010.73
2018-07-02T09:57:20.049Z,1010.78
2018-07-02T09:58:20.014Z,1010.85
2018-07-02T09:59:19.983Z,1010.82
2018-07-02T10:00:19.970Z,1010.86
2018-07-02T10:01:19.943Z,1010.79
2018-07-02T10:02:19.905Z,1010.81
2018-07-02T10:03:19.888Z,1010.83
2018-07-02T10:04:19.901Z,1010.75
2018-07-02T10:05:19.869Z,1010.80
2018-07-02T10:06:19.884Z,1010.80
2018-07-02T10:07:19.919Z,1010.80
2018-07-02T10:08:19.908Z,1010.78
2018-07-02T10:09:19.760Z,1010.75
2018-07-02T10:10:19.726Z,1010.73
2018-07-02T10:11:19.793Z,1010.74
2018-07-02T10:12:19.719Z,1010.71
2018-07-02T10:13:19.661Z,1010.72
2018-07-02T10:14:19.639Z,1010.70
2018-07-02T10:15:19.656Z,1010.68
2018-07-02T10:16:19.623Z,1010.72
2018-07-02T10:17:19.569Z,1010.65
2018-07-02T10:18:19.566Z,1010.75
2018-07-02T10:19:19.556Z,1010.74
2018-07-02T10:20:19.688Z,1010.66
2018-07-02T10:21:19.478Z,1010.68
2018-07-02T10:22:19.575Z,1010.68
2018-07-02T10:23:19.436Z,1010.68
2018-07-02T10:24:19.501Z,1010.65
2018-07-02T10:25:19.396Z,1010.69
2018-07-02T10:26:19.476Z,1010.61
2018-07-02T10:27:19.354Z,1010.58
2018-07-02T10:28:19.492Z,1010.56
2018-07-02T10:29:19.356Z,1010.62
2018-07-02T10:30:19.418Z,1010.53
2018-07-02T10:31:19.333Z,1010.51
2018-07-02T10:32:19.312Z,1010.54
2018-07-02T10:33:19.214Z,1010.62
2018-07-02T10:34:19.330Z,1010.62
2018-07-02T10:35:19.225Z,1010.64
2018-07-02T10:36:19.253Z,1010.63
2018-07-02T10:37:19.149Z,1010.67
2018-07-02T10:38:19.259Z,1010.69
2018-07-02T10:39:19.097Z,1010.75
2018-07-02T10:40:19.167Z,1010.72
2018-07-02T10:41:19.054Z,1010.65
2018-07-02T10:42:19.184Z,1010.68
2018-07-02T10:43:18.977Z,1010.62
2018-07-02T10:44:19.108Z,1010.59
2018-07-02T10:45:19.016Z,1010.61
2018-07-02T10:46:19.003Z,1010.63
2018-07-02T10:47:18.905Z,1010.58
2018-07-02T10:48:19.024Z,1010.65
2018-07-02T10:49:18.901Z,1010.64
2018-07-02T10:50:18.971Z,1010.70
2018-07-02T10:51:18.803Z,1010.70
2018-07-02T10:52:18.959Z,1010.69
2018-07-02T10:53:18.763Z,1010.70
2018-07-02T10:54:18.876Z,1010.62
2018-07-02T10:55:18.720Z,1010.60
2018-07-02T10:56:18.872Z,1010.58
2018-07-02T10:57:18.673Z,1010.62
2018-07-02T10:58:18.780Z,1010.60
2018-07-02T10:59:18.626Z,1010.56
2018-07-02T11:00:18.633Z,1010.61
2018-07-02T11:01:18.660Z,1010.58
2018-07-02T11:02:18.590Z,1010.56
2018-07-02T11:03:18.544Z,1010.61
2018-07-02T11:04:18.550Z,1010.59
2018-07-02T11:05:18.521Z,1010.62
2018-07-02T11:06:18.482Z,1010.68
2018-07-02T11:07:18.630Z,1010.63
2018-07-02T11:08:18.442Z,1010.58
2018-07-02T11:09:18.506Z,1010.54
2018-07-02T11:10:18.472Z,1010.51
2018-07-02T11:11:18.399Z,1010.55
2018-07-02T11:12:18.366Z,1010.59
2018-07-02T11:13:18.340Z,1010.59
2018-07-02T11:14:18.534Z,1010.57
2018-07-02T11:15:18.289Z,1010.61
2018-07-02T11:16:27.628Z,1010.59
2018-07-02T11:17:18.250Z,1010.63
2018-07-02T11:18:18.215Z,1010.59
2018-07-02T11:19:18.237Z,1010.61
2018-07-02T11:20:18.200Z,1010.53
2018-07-02T11:21:18.284Z,1010.50
2018-07-02T11:22:18.136Z,1010.50
2018-07-02T11:23:18.182Z,1010.44
2018-07-02T11:24:18.111Z,1010.46
2018-07-02T11:25:18.107Z,1010.48
2018-07-02T11:26:18.091Z,1010.44
2018-07-02T11:27:18.013Z,1010.45
2018-07-02T11:28:18.002Z,1010.41
2018-07-02T11:29:18.130Z,1010.39
2018-07-02T11:30:17.959Z,1010.43
2018-07-02T11:31:18.033Z,1010.46
2018-07-02T11:32:17.914Z,1010.48
2018-07-02T11:33:17.944Z,1010.49
2018-07-02T11:34:17.875Z,1010.44
2018-07-02T11:35:17.851Z,1010.48
2018-07-02T11:36:17.820Z,1010.46
2018-07-02T11:37:18.905Z,1010.48
2018-07-02T11:38:18.016Z,1010.40
2018-07-02T11:39:17.760Z,1010.35
2018-07-02T11:40:17.738Z,1010.34
2018-07-02T11:41:17.795Z,1010.32
2018-07-02T11:42:17.695Z,1010.34
2018-07-02T11:43:17.680Z,1010.36
2018-07-02T11:44:17.660Z,1010.33
2018-07-02T11:45:17.630Z,1010.37
2018-07-02T11:46:17.626Z,1010.27
2018-07-02T11:48:05.053Z,1010.36
2018-07-02T11:49:05.008Z,1010.26
2018-07-02T11:50:05.014Z,1010.31
2018-07-02T11:51:05.088Z,1010.30
2018-07-02T11:52:04.941Z,1010.31
2018-07-02T11:53:04.894Z,1010.35
2018-07-02T11:54:05.056Z,1010.35
2018-07-02T11:55:04.851Z,1010.37
2018-07-02T11:56:04.957Z,1010.30
2018-07-02T11:57:04.811Z,1010.36
2018-07-02T11:58:04.877Z,1010.37
2018-07-02T11:59:04.786Z,1010.32
2018-07-02T12:00:04.796Z,1010.36
2018-07-02T12:01:04.713Z,1010.42
2018-07-02T12:02:04.795Z,1010.35
2018-07-02T12:03:04.682Z,1010.36
2018-07-02T12:04:04.707Z,1010.41
2018-07-02T12:05:04.625Z,1010.33
2018-07-02T12:06:09.529Z,1010.31
2018-07-02T12:07:04.632Z,1010.32
2018-07-02T12:08:04.640Z,1010.31
2018-07-02T12:09:04.545Z,1010.32